Time;durP1;ratioP1;P1;durP2;ratioP2;P2;SDS_P1;SDS_P2;PMS_P1;PMS_P2;Temp;Humidity;BMP_temperature;BMP_pressure;BME280_temperature;BME280_humidity;BME280_pressure;Samples;Min_cycle;Max_cycle;Signal;HPM_P1;HPM_P2
2022/12/16 00:00:41;;;;;;;21.75;14.07;;;0.00;99.90;;;;;;5010571;28;20317;-76
2022/12/16 00:03:26;;;;;;;20.67;13.50;;;0.00;99.90;;;;;;5013322;28;20297;-77
2022/12/16 00:06:14;;;;;;;25.45;15.50;;;-0.10;99.90;;;;;;5010964;28;20407;-76
2022/12/16 00:09:00;;;;;;;22.20;13.43;;;-0.10;99.90;;;;;;5012515;28;20222;-77
2022/12/16 00:11:45;;;;;;;21.73;13.48;;;-0.10;99.90;;;;;;5006967;28;20575;-77
2022/12/16 00:14:31;;;;;;;22.70;13.75;;;-0.10;99.90;;;;;;5015860;28;20202;-77
2022/12/16 00:17:17;;;;;;;20.60;13.55;;;-0.20;99.90;;;;;;5014684;28;20202;-77
2022/12/16 00:20:04;;;;;;;23.98;13.75;;;-0.20;99.90;;;;;;5011171;28;20289;-76
2022/12/16 00:22:52;;;;;;;18.75;11.55;;;-0.10;99.90;;;;;;5018193;28;20567;-76
2022/12/16 00:25:37;;;;;;;19.33;12.98;;;-0.10;99.90;;;;;;5013696;28;20195;-76
2022/12/16 00:28:23;;;;;;;18.23;12.68;;;0.00;99.90;;;;;;5021953;28;20222;-77
2022/12/16 00:31:08;;;;;;;19.90;11.25;;;0.00;99.90;;;;;;5007764;28;20209;-77
2022/12/16 00:33:56;;;;;;;18.13;12.82;;;-0.10;99.90;;;;;;5011272;28;20248;-77
2022/12/16 00:36:42;;;;;;;17.95;12.18;;;-0.20;99.90;;;;;;5017307;28;20197;-77
2022/12/16 00:39:29;;;;;;;18.98;12.73;;;-0.20;99.90;;;;;;5016413;28;20609;-77
2022/12/16 00:42:14;;;;;;;18.13;11.90;;;-0.30;99.90;;;;;;5021335;28;20206;-77
2022/12/16 00:45:00;;;;;;;16.30;11.10;;;-0.30;99.90;;;;;;5010434;28;20573;-77
2022/12/16 00:47:46;;;;;;;49.38;15.35;;;-0.20;99.90;;;;;;5012996;28;20293;-76
2022/12/16 00:50:31;;;;;;;17.40;11.73;;;-0.20;99.90;;;;;;5011927;28;20222;-77
2022/12/16 00:53:17;;;;;;;22.48;14.52;;;-0.20;99.90;;;;;;5014873;28;20202;-77
2022/12/16 00:56:06;;;;;;;26.33;14.75;;;-0.30;99.90;;;;;;5021687;28;20202;-77
2022/12/16 00:58:52;;;;;;;21.75;13.52;;;-0.30;99.90;;;;;;5010835;28;20597;-77
2022/12/16 01:01:37;;;;;;;22.10;14.65;;;-0.30;99.90;;;;;;5019305;28;20221;-77
2022/12/16 01:04:25;;;;;;;21.98;15.00;;;-0.40;99.90;;;;;;5013963;28;20226;-77
2022/12/16 01:07:11;;;;;;;22.75;14.40;;;-0.40;99.90;;;;;;5017153;28;20564;-77
2022/12/16 01:09:56;;;;;;;21.50;14.45;;;-0.50;99.90;;;;;;5013566;28;20231;-76
2022/12/16 01:12:43;;;;;;;25.40;16.70;;;-0.50;99.90;;;;;;5018893;28;20308;-77
2022/12/16 01:15:29;;;;;;;23.25;15.80;;;-0.60;99.90;;;;;;5005766;28;20206;-77
2022/12/16 01:18:14;;;;;;;24.42;16.60;;;-0.60;99.90;;;;;;5008462;28;20515;-76
2022/12/16 01:21:03;;;;;;;24.85;16.08;;;-0.70;99.90;;;;;;5010102;28;20293;-77
2022/12/16 01:23:49;;;;;;;26.13;17.77;;;-0.80;99.90;;;;;;5009974;28;20226;-77
2022/12/16 01:26:34;;;;;;;23.42;15.25;;;-0.80;99.90;;;;;;5022859;28;20202;-77
2022/12/16 01:29:21;;;;;;;28.92;16.55;;;-0.90;99.90;;;;;;5009407;28;20226;-77
2022/12/16 01:32:09;;;;;;;28.90;17.60;;;-0.90;99.90;;;;;;5015505;28;20198;-77
2022/12/16 01:34:55;;;;;;;24.13;16.13;;;-1.00;99.90;;;;;;5011482;28;20638;-77
2022/12/16 01:37:40;;;;;;;27.60;18.13;;;-1.10;99.90;;;;;;5008264;28;20667;-77
2022/12/16 01:40:26;;;;;;;32.25;17.67;;;-1.10;99.90;;;;;;5013286;28;20201;-77
2022/12/16 01:43:14;;;;;;;26.13;16.00;;;-1.10;99.90;;;;;;5014781;28;20573;-76
2022/12/16 01:46:06;;;;;;;22.73;15.05;;;-1.10;99.90;;;;;;5013166;28;20206;-76
2022/12/16 01:48:54;;;;;;;25.85;16.67;;;-1.10;99.90;;;;;;5009219;28;20320;-77
2022/12/16 01:51:43;;;;;;;27.08;17.00;;;-1.10;99.90;;;;;;5019163;28;20581;-77
2022/12/16 01:54:33;;;;;;;25.65;15.70;;;-1.00;99.90;;;;;;5022702;28;20194;-77
2022/12/16 01:57:25;;;;;;;24.38;14.85;;;-1.10;99.90;;;;;;5023632;28;20214;-77
2022/12/16 02:00:12;;;;;;;27.08;16.77;;;-1.10;99.90;;;;;;5019898;28;20229;-77
2022/12/16 02:03:00;;;;;;;26.48;16.50;;;-1.10;99.90;;;;;;5013584;28;20209;-77
2022/12/16 02:05:47;;;;;;;30.25;15.90;;;-1.20;99.90;;;;;;5011987;28;20234;-77
2022/12/16 02:08:32;;;;;;;22.65;15.93;;;-1.20;99.90;;;;;;5010223;28;20228;-77
2022/12/16 02:11:32;;;;;;;28.25;15.38;;;-1.20;99.90;;;;;;5014056;28;20255;-77
2022/12/16 02:14:49;;;;;;;27.65;16.55;;;-1.20;99.90;;;;;;5012729;28;20218;-77
2022/12/16 02:17:41;;;;;;;24.65;15.68;;;-1.20;99.90;;;;;;5009515;28;20210;-76
2022/12/16 02:21:03;;;;;;;25.13;14.55;;;-1.30;99.90;;;;;;5021116;28;20248;-77
2022/12/16 02:24:30;;;;;;;22.35;15.13;;;-1.30;99.90;;;;;;5014807;28;20206;-76
2022/12/16 02:27:48;;;;;;;23.27;16.70;;;-1.40;99.90;;;;;;5009930;28;20206;-77
2022/12/16 02:30:59;;;;;;;25.88;15.98;;;-1.40;99.90;;;;;;5023985;28;20201;-77
2022/12/16 02:33:56;;;;;;;27.10;17.23;;;-1.50;99.90;;;;;;5017169;28;20198;-77
2022/12/16 02:36:56;;;;;;;28.38;18.17;;;-1.50;99.90;;;;;;5014195;28;20329;-77
2022/12/16 02:39:49;;;;;;;26.30;18.05;;;-1.40;99.90;;;;;;5016977;28;20221;-76
2022/12/16 02:42:40;;;;;;;27.65;16.88;;;-1.40;99.90;;;;;;5019410;28;20213;-77
2022/12/16 02:45:29;;;;;;;21.45;14.88;;;-1.50;99.90;;;;;;5017311;28;20233;-76
2022/12/16 02:48:17;;;;;;;23.90;15.35;;;-1.50;99.90;;;;;;5005628;28;20815;-77
2022/12/16 02:51:03;;;;;;;27.55;16.95;;;-1.60;99.90;;;;;;5016882;28;20721;-77
2022/12/16 02:53:50;;;;;;;25.33;15.40;;;-1.60;99.90;;;;;;5017022;28;20208;-77
2022/12/16 02:56:49;;;;;;;25.55;16.60;;;-1.60;99.90;;;;;;5007844;28;20210;-76
2022/12/16 02:59:44;;;;;;;23.45;14.18;;;-1.60;99.90;;;;;;5007258;28;20786;-77
2022/12/16 03:02:36;;;;;;;25.85;16.27;;;-1.60;99.90;;;;;;5016736;28;20211;-76
2022/12/16 03:05:27;;;;;;;25.10;14.25;;;-1.60;99.90;;;;;;5010174;28;20221;-77
2022/12/16 03:08:17;;;;;;;21.77;15.60;;;-1.60;99.90;;;;;;5004354;28;20339;-77
2022/12/16 03:11:05;;;;;;;22.92;15.05;;;-1.60;99.90;;;;;;5019841;28;20198;-77
2022/12/16 03:13:54;;;;;;;22.77;15.55;;;-1.70;99.90;;;;;;5015141;28;20284;-77
2022/12/16 03:16:41;;;;;;;28.33;17.95;;;-1.80;99.90;;;;;;5011752;28;20249;-77
2022/12/16 03:19:28;;;;;;;25.25;15.05;;;-1.80;99.90;;;;;;5010577;28;20222;-77
2022/12/16 03:22:18;;;;;;;21.75;15.45;;;-1.80;99.90;;;;;;5020269;28;20233;-77
2022/12/16 03:25:05;;;;;;;21.13;14.05;;;-1.80;99.90;;;;;;5020601;28;20225;-77
2022/12/16 03:27:59;;;;;;;23.45;14.70;;;-1.80;99.90;;;;;;5006618;28;20206;-77
2022/12/16 03:30:50;;;;;;;24.10;17.10;;;-1.80;99.90;;;;;;5026145;28;20201;-77
2022/12/16 03:33:39;;;;;;;25.55;14.48;;;-1.80;99.90;;;;;;5012956;28;20206;-77
2022/12/16 03:36:27;;;;;;;20.98;13.52;;;-1.90;99.90;;;;;;5002040;28;20305;-77
2022/12/16 03:39:15;;;;;;;24.85;15.57;;;-1.90;99.90;;;;;;5022194;28;20256;-77
2022/12/16 03:42:02;;;;;;;24.73;16.38;;;-2.00;99.90;;;;;;5020940;28;20276;-77
2022/12/16 03:44:49;;;;;;;23.88;15.45;;;-2.00;99.90;;;;;;5011852;28;20229;-76
2022/12/16 03:47:34;;;;;;;24.55;17.00;;;-1.90;99.90;;;;;;5001777;28;20206;-76
2022/12/16 03:50:25;;;;;;;24.77;17.10;;;-2.00;99.90;;;;;;5012347;28;20228;-76
2022/12/16 03:53:10;;;;;;;22.35;15.60;;;-2.00;99.90;;;;;;5014365;28;20249;-77
2022/12/16 03:55:57;;;;;;;23.15;15.75;;;-2.10;99.90;;;;;;5007232;28;20742;-77
2022/12/16 03:58:45;;;;;;;25.45;16.77;;;-2.20;99.90;;;;;;5007284;28;20301;-76
2022/12/16 04:01:31;;;;;;;34.22;18.20;;;-2.20;99.90;;;;;;5012115;28;20206;-76
2022/12/16 04:04:17;;;;;;;21.75;14.73;;;-2.30;99.90;;;;;;5013832;28;20284;-76
2022/12/16 04:07:20;;;;;;;23.38;17.13;;;-2.30;99.90;;;;;;5009753;28;20198;-76
2022/12/16 04:10:07;;;;;;;22.48;16.23;;;-2.40;99.90;;;;;;5011879;28;20222;-76
2022/12/16 04:25:12;;;;;;;25.30;14.85;;;-3.10;99.90;;;;;;5017700;28;20229;-76
2022/12/16 04:27:59;;;;;;;24.05;14.70;;;-3.10;99.90;;;;;;5007917;28;20330;-77
2022/12/16 04:30:45;;;;;;;30.40;18.02;;;-3.20;99.90;;;;;;5025962;28;20205;-77
